createdAt,value
2019-02-07T02:09:39.445Z,15.74
2019-02-07T02:10:39.438Z,15.70
2019-02-07T02:12:39.430Z,15.76
2019-02-07T02:13:39.426Z,15.63
2019-02-07T02:14:39.423Z,15.76
2019-02-07T02:15:39.427Z,15.76
2019-02-07T02:16:39.420Z,15.74
2019-02-07T02:17:39.422Z,15.76
2019-02-07T02:18:39.417Z,15.70
2019-02-07T02:19:39.417Z,15.74
2019-02-07T02:20:39.413Z,15.70
2019-02-07T02:21:39.403Z,15.76
2019-02-07T02:22:39.401Z,15.75
2019-02-07T02:23:39.401Z,15.76
2019-02-07T02:24:39.390Z,15.75
2019-02-07T02:25:39.388Z,15.74
2019-02-07T02:26:39.385Z,15.74
2019-02-07T02:27:39.386Z,15.76
2019-02-07T02:28:39.371Z,15.74
2019-02-07T02:29:39.365Z,15.79
2019-02-07T02:30:39.366Z,15.72
2019-02-07T02:31:39.364Z,15.74
2019-02-07T02:32:39.352Z,15.66
2019-02-07T02:33:39.345Z,15.75
2019-02-07T02:34:39.346Z,15.72
2019-02-07T02:35:39.420Z,15.72
2019-02-07T02:36:39.337Z,15.74
2019-02-07T02:37:39.337Z,15.78
2019-02-07T02:38:39.434Z,15.66
2019-02-07T02:39:39.432Z,15.74
2019-02-07T02:40:39.318Z,15.76
2019-02-07T02:41:39.311Z,15.74
2019-02-07T02:43:08.017Z,15.74
2019-02-07T02:44:07.895Z,15.74
2019-02-07T02:45:07.872Z,15.66
2019-02-07T02:46:07.850Z,15.76
2019-02-07T02:47:07.829Z,15.76
2019-02-07T02:48:07.810Z,15.76
2019-02-07T02:49:07.790Z,15.75
2019-02-07T02:50:07.766Z,15.70
2019-02-07T02:51:07.746Z,15.78
2019-02-07T02:52:07.722Z,15.76
2019-02-07T02:53:07.702Z,15.78
2019-02-07T02:54:07.682Z,15.75
2019-02-07T02:55:07.675Z,15.79
2019-02-07T02:56:07.651Z,15.74
2019-02-07T02:57:07.633Z,15.81
2019-02-07T02:58:07.622Z,15.76
2019-02-07T02:59:07.602Z,15.88
2019-02-07T03:00:07.586Z,15.79
2019-02-07T03:01:07.645Z,15.75
2019-02-07T03:02:07.652Z,15.78
2019-02-07T03:03:07.539Z,15.76
2019-02-07T03:04:07.628Z,15.78
2019-02-07T03:05:07.511Z,15.85
2019-02-07T03:06:07.498Z,15.85
2019-02-07T03:07:07.490Z,15.88
2019-02-07T03:08:07.470Z,15.85
2019-02-07T03:09:07.453Z,15.88
2019-02-07T03:10:07.434Z,15.92
2019-02-07T03:11:07.416Z,15.89
2019-02-07T03:12:07.395Z,15.82
2019-02-07T03:13:07.381Z,15.85
2019-02-07T03:14:07.364Z,15.85
2019-02-07T03:15:07.368Z,15.88
2019-02-07T03:16:07.328Z,15.84
2019-02-07T03:17:07.314Z,15.92
2019-02-07T03:18:07.298Z,15.84
2019-02-07T03:19:07.277Z,15.84
2019-02-07T03:20:07.263Z,15.89
2019-02-07T03:21:07.243Z,15.92
2019-02-07T03:22:07.229Z,15.86
2019-02-07T03:23:07.211Z,15.88
2019-02-07T03:24:07.193Z,15.86
2019-02-07T03:25:07.177Z,15.88
2019-02-07T03:26:07.158Z,15.94
2019-02-07T03:27:07.140Z,15.86
2019-02-07T03:28:07.128Z,15.97
2019-02-07T03:29:07.111Z,15.97
2019-02-07T03:30:07.098Z,15.92
2019-02-07T03:31:07.085Z,15.99
2019-02-07T03:32:07.070Z,15.96
2019-02-07T03:33:07.047Z,15.97
2019-02-07T03:34:07.026Z,15.96
2019-02-07T03:35:07.011Z,15.93
2019-02-07T03:36:06.994Z,15.94
2019-02-07T03:37:06.982Z,16.00
2019-02-07T03:38:06.964Z,16.01
2019-02-07T03:39:07.198Z,15.99
2019-02-07T03:40:06.927Z,16.03
2019-02-07T03:41:06.911Z,16.01
2019-02-07T03:42:06.894Z,15.99
2019-02-07T03:43:06.876Z,15.99
2019-02-07T03:44:06.864Z,16.03
2019-02-07T03:45:06.853Z,16.01
2019-02-07T03:46:06.834Z,15.97
2019-02-07T03:47:06.818Z,15.99
2019-02-07T03:48:06.807Z,15.96
2019-02-07T03:49:06.792Z,15.96
2019-02-07T03:50:06.893Z,15.94
2019-02-07T03:51:06.763Z,15.94
2019-02-07T03:52:06.746Z,15.97
2019-02-07T03:53:06.734Z,16.03
2019-02-07T03:54:06.719Z,15.99
2019-02-07T03:55:06.766Z,16.07
2019-02-07T03:56:06.686Z,15.97
2019-02-07T03:57:06.762Z,15.97
2019-02-07T03:58:06.651Z,16.01
2019-02-07T03:59:06.727Z,16.03
2019-02-07T04:00:06.620Z,16.09
2019-02-07T04:01:06.604Z,16.01
2019-02-07T04:02:06.586Z,15.96
2019-02-07T04:03:06.573Z,16.11
2019-02-07T04:04:06.655Z,16.07
2019-02-07T04:05:06.545Z,16.04
2019-02-07T04:06:06.621Z,16.16
2019-02-07T04:07:06.610Z,16.14
2019-02-07T04:08:06.492Z,16.15
2019-02-07T04:09:06.478Z,16.14
2019-02-07T04:10:06.554Z,16.07
2019-02-07T04:11:06.451Z,16.11
2019-02-07T04:12:06.530Z,16.12
2019-02-07T04:13:06.424Z,16.12
2019-02-07T04:14:06.503Z,16.09
2019-02-07T04:15:06.486Z,16.15
2019-02-07T04:16:14.797Z,16.19
2019-02-07T04:17:07.555Z,16.18
2019-02-07T04:18:06.432Z,16.24
2019-02-07T04:19:06.418Z,16.16
2019-02-07T04:20:06.394Z,16.25
2019-02-07T04:21:06.389Z,16.25
2019-02-07T04:22:06.367Z,16.26
2019-02-07T04:23:06.349Z,16.18
2019-02-07T04:24:06.326Z,16.26
2019-02-07T04:25:06.306Z,16.29
2019-02-07T04:26:06.192Z,16.26
2019-02-07T04:27:06.270Z,16.22
2019-02-07T04:28:06.153Z,16.25
2019-02-07T04:29:06.133Z,16.25
2019-02-07T04:30:06.114Z,16.25
2019-02-07T04:31:06.093Z,16.33
2019-02-07T04:32:06.072Z,16.33
2019-02-07T04:33:06.054Z,16.25
2019-02-07T04:34:06.025Z,16.36
2019-02-07T04:35:05.999Z,16.30
2019-02-07T04:36:05.978Z,16.29
2019-02-07T04:37:05.956Z,16.36
2019-02-07T04:38:05.933Z,16.32
2019-02-07T04:39:06.012Z,16.34
2019-02-07T04:40:05.992Z,16.36
2019-02-07T04:41:05.874Z,16.37
2019-02-07T04:42:05.936Z,16.33
2019-02-07T04:43:05.915Z,16.43
2019-02-07T04:44:05.795Z,16.40
2019-02-07T04:45:05.867Z,16.40
2019-02-07T04:46:05.839Z,16.40
2019-02-07T04:47:05.822Z,16.44
2019-02-07T04:48:05.699Z,16.47
2019-02-07T04:49:05.775Z,16.54
2019-02-07T04:50:05.754Z,16.49
2019-02-07T04:51:05.730Z,16.52
2019-02-07T04:52:05.711Z,16.51
2019-02-07T04:53:05.689Z,16.47
2019-02-07T04:54:05.664Z,16.51
2019-02-07T04:55:05.559Z,16.47
2019-02-07T04:56:05.614Z,16.55
2019-02-07T04:57:05.596Z,16.52
2019-02-07T04:58:05.572Z,16.51
2019-02-07T04:59:05.461Z,16.57
2019-02-07T05:00:05.433Z,16.54
2019-02-07T05:01:05.411Z,16.57
2019-02-07T05:02:05.495Z,16.58
2019-02-07T05:03:05.464Z,16.61
2019-02-07T05:04:05.351Z,16.59
2019-02-07T05:05:05.425Z,16.62
2019-02-07T05:06:05.399Z,16.66
2019-02-07T05:07:05.376Z,16.62
2019-02-07T05:08:05.349Z,16.61
2019-02-07T05:09:05.329Z,16.64
2019-02-07T05:10:05.309Z,16.58
2019-02-07T05:11:05.290Z,16.66
2019-02-07T05:12:05.273Z,16.62
2019-02-07T05:13:05.253Z,16.69
2019-02-07T05:14:05.184Z,16.67
2019-02-07T05:15:05.215Z,16.72
2019-02-07T05:16:05.094Z,16.76
2019-02-07T05:17:05.164Z,16.69
2019-02-07T05:18:05.141Z,16.77
2019-02-07T05:19:05.115Z,16.77
2019-02-07T05:20:05.097Z,16.74
2019-02-07T05:21:05.071Z,16.73
2019-02-07T05:22:05.050Z,16.77
2019-02-07T05:23:04.934Z,16.74
2019-02-07T05:24:05.008Z,16.84
2019-02-07T05:25:04.981Z,16.73
2019-02-07T05:26:04.993Z,16.84
2019-02-07T05:27:04.931Z,16.84
2019-02-07T05:28:04.917Z,16.79
2019-02-07T05:29:04.894Z,16.88
2019-02-07T05:30:04.874Z,16.95
2019-02-07T05:31:04.859Z,16.85
2019-02-07T05:32:04.840Z,16.90
2019-02-07T05:33:04.826Z,16.88
2019-02-07T05:34:04.805Z,16.87
2019-02-07T05:35:04.800Z,16.93
2019-02-07T05:36:04.770Z,16.95
2019-02-07T05:37:04.757Z,16.87
2019-02-07T05:38:04.729Z,16.90
2019-02-07T05:39:04.706Z,16.90
2019-02-07T05:40:04.694Z,16.80
2019-02-07T05:41:04.911Z,16.96
2019-02-07T05:42:04.635Z,16.87
2019-02-07T05:43:04.608Z,16.93
2019-02-07T05:44:04.492Z,16.88
2019-02-07T05:45:04.556Z,16.98
2019-02-07T05:46:04.535Z,16.88
2019-02-07T05:47:04.518Z,16.88
2019-02-07T05:48:04.493Z,16.88
2019-02-07T05:49:04.471Z,16.92
2019-02-07T05:50:04.451Z,16.92
2019-02-07T05:51:04.431Z,16.95
2019-02-07T05:52:04.404Z,16.92
2019-02-07T05:53:04.378Z,16.96
2019-02-07T05:54:04.357Z,16.99
2019-02-07T05:55:04.333Z,16.96
2019-02-07T05:56:04.310Z,16.96
2019-02-07T05:57:04.354Z,16.99
2019-02-07T05:58:04.256Z,17.08
2019-02-07T05:59:04.229Z,17.07
2019-02-07T06:00:04.202Z,17.06
2019-02-07T06:01:04.177Z,17.11
2019-02-07T06:02:04.152Z,17.13
2019-02-07T06:03:04.128Z,17.10
2019-02-07T06:04:04.108Z,17.10
2019-02-07T06:05:04.187Z,17.10
2019-02-07T06:06:04.058Z,17.06
2019-02-07T06:07:04.036Z,17.11
2019-02-07T06:08:04.010Z,17.07
2019-02-07T06:09:03.983Z,17.14
2019-02-07T06:10:04.061Z,17.08
2019-02-07T06:11:03.938Z,17.15
2019-02-07T06:12:03.917Z,17.15
2019-02-07T06:13:03.901Z,17.18
2019-02-07T06:14:03.866Z,17.15
2019-02-07T06:15:03.944Z,17.15
2019-02-07T06:16:03.826Z,17.15
2019-02-07T06:17:03.710Z,17.18
2019-02-07T06:18:03.780Z,17.25
2019-02-07T06:19:03.753Z,17.18
2019-02-07T06:20:03.728Z,17.22
2019-02-07T06:21:03.703Z,17.20
2019-02-07T06:22:03.641Z,17.29
2019-02-07T06:23:03.670Z,17.23
2019-02-07T06:24:03.641Z,17.28
2019-02-07T06:25:03.624Z,17.35
2019-02-07T06:26:03.589Z,17.22
2019-02-07T06:27:03.565Z,17.33
2019-02-07T06:28:03.537Z,17.25
2019-02-07T06:29:03.515Z,17.25
2019-02-07T06:30:03.491Z,17.25
2019-02-07T06:31:03.472Z,17.25
2019-02-07T06:32:03.446Z,17.28
2019-02-07T06:33:03.428Z,17.25
2019-02-07T06:34:03.403Z,17.29
2019-02-07T06:35:03.380Z,17.28
2019-02-07T06:36:03.358Z,17.25
2019-02-07T06:37:03.336Z,17.28
2019-02-07T06:38:03.311Z,17.33
2019-02-07T06:39:03.288Z,17.23
2019-02-07T06:40:03.268Z,17.26
2019-02-07T06:41:03.249Z,17.30
2019-02-07T06:42:03.325Z,17.33
2019-02-07T06:43:03.210Z,17.33
2019-02-07T06:44:03.187Z,17.41
2019-02-07T06:45:05.988Z,17.32
2019-02-07T06:46:03.141Z,17.36
2019-02-07T06:47:13.012Z,17.33
2019-02-07T06:48:04.268Z,17.36
2019-02-07T06:49:03.078Z,17.36
2019-02-07T06:50:03.059Z,17.41
2019-02-07T06:51:03.031Z,17.33
2019-02-07T06:52:03.007Z,17.41
2019-02-07T06:53:02.990Z,17.38
2019-02-07T06:54:02.977Z,17.35
2019-02-07T06:55:05.070Z,17.35
2019-02-07T06:56:02.934Z,17.38
2019-02-07T06:57:02.915Z,17.32
2019-02-07T06:58:02.888Z,17.33
2019-02-07T06:59:02.869Z,17.36
2019-02-07T07:00:02.847Z,17.38
2019-02-07T07:01:02.828Z,17.36
2019-02-07T07:02:02.805Z,17.33
2019-02-07T07:03:02.778Z,17.33
2019-02-07T07:04:02.758Z,17.33
2019-02-07T07:05:02.735Z,17.38
2019-02-07T07:06:02.710Z,17.36
2019-02-07T07:07:02.686Z,17.40
2019-02-07T07:08:02.669Z,17.41
2019-02-07T07:09:02.647Z,17.40
2019-02-07T07:10:02.630Z,17.43
2019-02-07T07:11:02.604Z,17.38
2019-02-07T07:12:02.589Z,17.35
2019-02-07T07:13:02.558Z,17.35
2019-02-07T07:14:02.537Z,17.33
2019-02-07T07:15:02.519Z,17.35
2019-02-07T07:16:02.490Z,17.44
2019-02-07T07:17:02.474Z,17.43
2019-02-07T07:18:02.449Z,17.36
2019-02-07T07:19:02.429Z,17.29
2019-02-07T07:20:02.412Z,17.32
2019-02-07T07:21:02.396Z,17.40
2019-02-07T07:22:02.380Z,17.43
2019-02-07T07:23:02.353Z,17.44
2019-02-07T07:24:02.325Z,17.33
2019-02-07T07:25:02.306Z,17.36
2019-02-07T07:26:02.289Z,17.33
2019-02-07T07:27:02.269Z,17.41
2019-02-07T07:28:02.249Z,17.36
2019-02-07T07:29:02.232Z,17.43
2019-02-07T07:30:02.214Z,17.35
2019-02-07T07:31:02.195Z,17.36
2019-02-07T07:32:02.166Z,17.41
2019-02-07T07:33:02.142Z,17.40
2019-02-07T07:34:02.119Z,17.36
2019-02-07T07:35:02.095Z,17.38
2019-02-07T07:36:02.074Z,17.35
2019-02-07T07:37:02.053Z,17.38
2019-02-07T07:38:02.027Z,17.47
2019-02-07T07:39:02.003Z,17.47
2019-02-07T07:40:01.984Z,17.46
2019-02-07T07:41:01.961Z,17.43
2019-02-07T07:42:01.938Z,17.51
2019-02-07T07:43:02.315Z,17.51
2019-02-07T07:44:01.897Z,17.65
2019-02-07T07:45:01.875Z,17.57
2019-02-07T07:46:01.858Z,17.62
2019-02-07T07:47:01.829Z,17.66
2019-02-07T07:48:01.805Z,17.65
2019-02-07T07:49:01.784Z,17.63
2019-02-07T07:50:01.763Z,17.66
2019-02-07T07:51:01.741Z,17.70
2019-02-07T07:52:01.718Z,17.77
2019-02-07T07:53:01.698Z,17.75
2019-02-07T07:54:01.673Z,17.75
2019-02-07T07:55:01.654Z,17.86
2019-02-07T07:56:01.629Z,17.83
2019-02-07T07:57:01.606Z,17.83
2019-02-07T07:58:01.575Z,17.87
2019-02-07T07:59:01.550Z,17.86
2019-02-07T08:00:01.531Z,17.93
2019-02-07T08:01:01.501Z,17.83
2019-02-07T08:02:01.469Z,17.88
2019-02-07T08:03:01.446Z,17.94
2019-02-07T08:04:01.422Z,17.84
2019-02-07T08:05:01.395Z,17.99
2019-02-07T08:06:01.368Z,18.05
2019-02-07T08:07:01.338Z,18.02
2019-02-07T08:08:01.312Z,18.08
2019-02-07T08:09:01.287Z,18.05
2019-02-07T08:10:01.261Z,18.08
2019-02-07T08:11:01.234Z,18.06
2019-02-07T08:12:01.207Z,18.03
2019-02-07T08:13:01.187Z,18.08
2019-02-07T08:14:01.159Z,18.06
2019-02-07T08:15:01.137Z,18.06
2019-02-07T08:16:01.119Z,18.03
2019-02-07T08:17:01.090Z,18.18
2019-02-07T08:18:01.061Z,18.20
2019-02-07T08:19:01.035Z,18.16
2019-02-07T08:20:01.007Z,18.16
2019-02-07T08:21:00.978Z,18.23
2019-02-07T08:22:00.952Z,18.18
2019-02-07T08:23:00.918Z,18.17
2019-02-07T08:24:00.895Z,18.18
2019-02-07T08:25:00.867Z,18.20
2019-02-07T08:26:00.838Z,18.23
2019-02-07T08:27:00.727Z,18.24
2019-02-07T08:28:00.786Z,18.26
2019-02-07T08:29:00.754Z,18.21
2019-02-07T08:30:00.722Z,18.24
2019-02-07T08:31:00.694Z,18.23
2019-02-07T08:32:00.662Z,18.26
2019-02-07T08:33:00.633Z,18.30
2019-02-07T08:34:00.600Z,18.28
2019-02-07T08:35:00.567Z,18.28
2019-02-07T08:36:00.539Z,18.28
2019-02-07T08:37:00.503Z,18.36
2019-02-07T08:38:00.475Z,18.37
2019-02-07T08:39:00.344Z,18.34
2019-02-07T08:40:00.440Z,18.33
2019-02-07T08:41:00.379Z,18.39
2019-02-07T08:42:00.353Z,18.39
2019-02-07T08:43:00.324Z,18.40
2019-02-07T08:44:00.633Z,18.43
2019-02-07T08:45:00.375Z,18.33
2019-02-07T08:46:00.213Z,18.43
2019-02-07T08:47:00.184Z,18.39
2019-02-07T08:48:00.136Z,18.39
2019-02-07T08:49:01.101Z,18.42
2019-02-07T08:50:00.252Z,18.49
2019-02-07T08:51:00.031Z,18.50
2019-02-07T08:52:00.018Z,18.43
2019-02-07T08:52:59.957Z,18.37
2019-02-07T08:53:59.922Z,18.50
2019-02-07T08:54:59.892Z,18.43
2019-02-07T08:55:59.849Z,18.47
2019-02-07T08:56:59.820Z,18.44
2019-02-07T08:57:59.789Z,18.47
2019-02-07T08:58:59.768Z,18.54
2019-02-07T08:59:59.720Z,18.59
2019-02-07T09:00:59.696Z,18.52
2019-02-07T09:01:59.760Z,18.55
2019-02-07T09:02:59.625Z,18.59
2019-02-07T09:03:59.993Z,18.49
2019-02-07T09:04:59.557Z,18.61
2019-02-07T09:05:59.520Z,18.62
2019-02-07T09:06:59.490Z,18.59
2019-02-07T09:07:59.459Z,18.55
2019-02-07T09:08:59.435Z,18.58
2019-02-07T09:09:59.403Z,18.62
2019-02-07T09:10:59.371Z,18.54
2019-02-07T09:11:59.332Z,18.61
2019-02-07T09:12:59.294Z,18.57
2019-02-07T09:13:59.269Z,18.54
2019-02-07T09:14:59.230Z,18.62
2019-02-07T09:15:59.192Z,18.68
2019-02-07T09:16:59.154Z,18.64
2019-02-07T09:18:09.611Z,18.62
2019-02-07T09:19:00.187Z,18.57
2019-02-07T09:19:59.049Z,18.61
2019-02-07T09:20:59.010Z,18.64
2019-02-07T09:21:58.974Z,18.50
2019-02-07T09:22:58.934Z,18.57
2019-02-07T09:23:58.901Z,18.64
2019-02-07T09:24:58.863Z,18.58
2019-02-07T09:29:27.671Z,18.54
2019-02-07T09:30:27.569Z,18.49
2019-02-07T09:31:27.567Z,18.58
2019-02-07T09:32:27.563Z,18.59
2019-02-07T09:33:27.561Z,18.62
2019-02-07T09:34:27.546Z,18.62
2019-02-07T09:35:27.540Z,18.59
2019-02-07T09:36:27.547Z,18.59
2019-02-07T09:37:27.537Z,18.55
2019-02-07T09:38:27.534Z,18.58
2019-02-07T09:39:27.526Z,18.59
2019-02-07T09:40:27.517Z,18.62
2019-02-07T09:41:27.511Z,18.58
2019-02-07T09:42:27.505Z,18.52
2019-02-07T09:43:27.501Z,18.50
2019-02-07T09:44:27.498Z,18.55
2019-02-07T09:45:27.499Z,18.44
2019-02-07T09:46:27.495Z,18.54
2019-02-07T09:47:27.493Z,18.46
2019-02-07T09:48:27.497Z,18.43
2019-02-07T09:49:27.490Z,18.42
2019-02-07T09:50:27.483Z,18.47
2019-02-07T09:51:27.481Z,18.47
2019-02-07T09:52:27.479Z,18.39
2019-02-07T09:53:27.476Z,18.37
2019-02-07T09:54:27.474Z,18.43
2019-02-07T09:55:27.475Z,18.33
2019-02-07T09:56:27.475Z,18.40
2019-02-07T09:57:27.475Z,18.40
2019-02-07T09:58:27.477Z,18.37
2019-02-07T09:59:27.475Z,18.36
2019-02-07T10:00:27.479Z,18.30
2019-02-07T10:01:27.474Z,18.36
2019-02-07T10:02:27.467Z,18.24
2019-02-07T10:03:27.566Z,18.27
2019-02-07T10:04:27.568Z,18.17
2019-02-07T10:05:27.466Z,18.20
2019-02-07T10:06:27.458Z,18.21
2019-02-07T10:07:27.459Z,18.16
2019-02-07T10:08:27.459Z,18.16
2019-02-07T10:09:27.453Z,18.16
2019-02-07T10:10:27.454Z,18.17
2019-02-07T10:11:27.455Z,18.16
2019-02-07T10:12:27.453Z,18.12
2019-02-07T10:13:27.458Z,18.16
2019-02-07T10:14:27.459Z,18.09
2019-02-07T10:15:27.463Z,18.08
2019-02-07T10:16:27.456Z,18.08
2019-02-07T10:17:27.458Z,18.11
2019-02-07T10:18:33.207Z,18.03
2019-02-07T10:19:28.557Z,18.02
2019-02-07T10:20:27.458Z,18.11
2019-02-07T10:21:27.457Z,18.09
2019-02-07T10:22:27.464Z,18.11
2019-02-07T10:23:27.466Z,17.99
2019-02-07T10:24:27.463Z,18.01
2019-02-07T10:25:27.460Z,17.96
2019-02-07T10:26:27.480Z,18.02
2019-02-07T10:27:27.459Z,17.96
2019-02-07T10:28:27.454Z,17.96
2019-02-07T10:29:27.555Z,17.88
2019-02-07T10:30:27.554Z,17.91
2019-02-07T10:31:27.448Z,17.86
2019-02-07T10:32:27.447Z,17.84
2019-02-07T10:33:27.446Z,17.87
2019-02-07T10:34:27.450Z,17.83
2019-02-07T10:35:27.446Z,17.84
2019-02-07T10:36:27.445Z,17.86
2019-02-07T10:37:27.447Z,17.86
2019-02-07T10:38:27.444Z,17.86
2019-02-07T10:39:27.500Z,17.84
2019-02-07T10:40:27.441Z,17.86
2019-02-07T10:41:27.443Z,17.78
2019-02-07T10:42:27.439Z,17.80
2019-02-07T10:43:27.437Z,17.81
2019-02-07T10:44:27.441Z,17.83
2019-02-07T10:45:27.435Z,17.83
2019-02-07T10:46:27.439Z,17.80
2019-02-07T10:47:30.053Z,17.75
2019-02-07T10:48:27.438Z,17.75
2019-02-07T10:49:27.441Z,17.77
2019-02-07T10:50:27.444Z,17.72
2019-02-07T10:51:27.451Z,17.73
2019-02-07T10:52:27.456Z,17.70
2019-02-07T10:53:27.455Z,17.69
2019-02-07T10:54:27.456Z,17.70
2019-02-07T10:55:27.466Z,17.63
2019-02-07T10:56:27.467Z,17.68
2019-02-07T10:57:27.466Z,17.66
2019-02-07T10:58:27.466Z,17.65
2019-02-07T10:59:27.474Z,17.72
2019-02-07T11:00:27.473Z,17.69
2019-02-07T11:01:27.477Z,17.59
2019-02-07T11:02:27.476Z,17.62
2019-02-07T11:03:27.479Z,17.62
2019-02-07T11:04:27.478Z,17.59
2019-02-07T11:05:27.484Z,17.61
2019-02-07T11:06:27.488Z,17.63
2019-02-07T11:07:27.483Z,17.63
2019-02-07T11:08:27.484Z,17.54
2019-02-07T11:09:27.483Z,17.59
2019-02-07T11:10:27.480Z,17.57
2019-02-07T11:11:27.485Z,17.55
2019-02-07T11:12:27.479Z,17.54
2019-02-07T11:13:27.477Z,17.59
2019-02-07T11:14:27.476Z,17.51
2019-02-07T11:15:27.479Z,17.48
2019-02-07T11:16:27.474Z,17.46
2019-02-07T11:17:27.473Z,17.48
2019-02-07T11:18:27.575Z,17.41
2019-02-07T11:19:27.478Z,17.41
2019-02-07T11:20:27.483Z,17.54
2019-02-07T11:21:27.479Z,17.46
2019-02-07T11:22:27.481Z,17.48
2019-02-07T11:23:27.477Z,17.41
2019-02-07T11:24:27.477Z,17.38
2019-02-07T11:25:27.476Z,17.48
2019-02-07T11:26:27.475Z,17.36
2019-02-07T11:27:27.477Z,17.40
2019-02-07T11:28:27.482Z,17.29
2019-02-07T11:29:27.585Z,17.38
2019-02-07T11:30:27.595Z,17.33
2019-02-07T11:31:27.495Z,17.36
2019-02-07T11:32:27.504Z,17.32
2019-02-07T11:33:27.509Z,17.32
2019-02-07T11:34:27.517Z,17.32
2019-02-07T11:35:27.526Z,17.36
2019-02-07T11:36:27.529Z,17.33
2019-02-07T11:37:27.536Z,17.36
2019-02-07T11:38:27.546Z,17.41
2019-02-07T11:39:29.641Z,17.25
2019-02-07T11:40:27.558Z,17.25
2019-02-07T11:41:27.566Z,17.28
2019-02-07T11:42:27.573Z,17.23
2019-02-07T11:43:27.574Z,17.30
2019-02-07T11:44:27.570Z,17.29
2019-02-07T11:45:27.571Z,17.23
2019-02-07T11:46:27.578Z,17.26
2019-02-07T11:47:27.574Z,17.23
2019-02-07T11:48:27.675Z,17.22
2019-02-07T11:49:27.585Z,17.22
2019-02-07T11:50:27.783Z,17.25
2019-02-07T11:51:27.577Z,17.23
2019-02-07T11:52:27.577Z,17.14
2019-02-07T11:53:27.573Z,17.15
2019-02-07T11:54:27.577Z,17.18
2019-02-07T11:55:27.580Z,17.08
2019-02-07T11:56:27.576Z,17.07
2019-02-07T11:57:27.582Z,17.07
2019-02-07T11:58:27.642Z,17.03
2019-02-07T11:59:27.594Z,17.07
2019-02-07T12:00:27.595Z,17.10
2019-02-07T12:01:27.701Z,17.07
2019-02-07T12:02:27.601Z,17.14
2019-02-07T12:03:27.599Z,17.10
2019-02-07T12:04:27.700Z,17.08
2019-02-07T12:05:27.605Z,17.08
2019-02-07T12:06:27.611Z,17.10
2019-02-07T12:07:27.619Z,17.00
2019-02-07T12:08:27.622Z,16.98
2019-02-07T12:09:27.624Z,17.13
2019-02-07T12:10:27.627Z,17.08
2019-02-07T12:11:27.635Z,16.95
2019-02-07T12:12:27.637Z,16.95
2019-02-07T12:13:27.644Z,16.98
2019-02-07T12:14:27.645Z,16.98
2019-02-07T12:15:27.650Z,16.99
2019-02-07T12:16:27.655Z,16.98
2019-02-07T12:17:27.657Z,16.96
2019-02-07T12:18:27.668Z,16.96
2019-02-07T12:19:27.675Z,16.95
2019-02-07T12:20:27.678Z,16.98
2019-02-07T12:21:27.683Z,16.99
2019-02-07T12:22:27.707Z,16.95
2019-02-07T12:23:27.696Z,16.93
2019-02-07T12:24:27.777Z,16.85
2019-02-07T12:25:27.708Z,16.90
2019-02-07T12:26:27.719Z,16.87
2019-02-07T12:27:27.724Z,16.95
2019-02-07T12:28:27.731Z,16.87
2019-02-07T12:29:27.840Z,16.88
2019-02-07T12:30:27.850Z,16.95
2019-02-07T12:31:27.753Z,16.84
2019-02-07T12:32:27.766Z,16.93
2019-02-07T12:33:27.770Z,16.96
2019-02-07T12:34:27.780Z,16.88
2019-02-07T12:35:27.785Z,16.85
2019-02-07T12:36:27.789Z,16.82
2019-02-07T12:37:27.793Z,16.84
2019-02-07T12:38:27.797Z,16.84
2019-02-07T12:39:27.800Z,16.87
2019-02-07T12:40:27.809Z,16.87
2019-02-07T12:41:27.818Z,16.74
2019-02-07T12:42:27.829Z,16.92
2019-02-07T12:43:27.844Z,16.93
2019-02-07T12:44:27.861Z,16.87
2019-02-07T12:45:27.869Z,16.88
2019-02-07T12:46:27.985Z,16.90
2019-02-07T12:47:27.904Z,16.87
2019-02-07T12:48:28.198Z,16.79
2019-02-07T12:49:29.513Z,16.76
2019-02-07T12:50:27.951Z,16.77
2019-02-07T12:51:27.962Z,16.76
2019-02-07T12:52:27.980Z,16.72
2019-02-07T12:53:27.994Z,16.77
2019-02-07T12:54:28.005Z,16.76
2019-02-07T12:55:28.020Z,16.76
2019-02-07T12:56:28.034Z,16.80
2019-02-07T12:57:28.053Z,16.76
2019-02-07T12:58:28.066Z,16.73
2019-02-07T12:59:28.083Z,16.72
2019-02-07T13:00:28.091Z,16.73
2019-02-07T13:01:28.110Z,16.69
2019-02-07T13:02:28.132Z,16.62
2019-02-07T13:03:28.495Z,16.62
2019-02-07T13:32:43.984Z,17.46
2019-02-07T13:33:43.722Z,17.47
2019-02-07T13:34:43.727Z,17.53
2019-02-07T13:35:43.759Z,17.55
2019-02-07T13:36:43.694Z,17.55
2019-02-07T13:37:43.795Z,17.65
2019-02-07T13:38:43.672Z,17.77
2019-02-07T13:39:43.683Z,17.83
2019-02-07T13:40:43.650Z,17.84
2019-02-07T13:41:43.652Z,17.87
2019-02-07T13:42:43.630Z,18.03
2019-02-07T13:43:43.622Z,17.90
2019-02-07T13:44:43.607Z,16.85
2019-02-07T13:45:43.662Z,16.80
2019-02-07T13:46:43.591Z,16.90
2019-02-07T13:47:43.583Z,17.22
2019-02-07T13:48:44.026Z,17.72
2019-02-07T13:49:51.642Z,17.84
2019-02-07T13:50:44.650Z,17.86
2019-02-07T13:51:43.533Z,18.05
2019-02-07T13:52:43.541Z,18.02
2019-02-07T13:53:43.511Z,18.03
2019-02-07T13:54:43.500Z,18.01
2019-02-07T13:55:43.488Z,18.03
2019-02-07T13:56:43.479Z,18.05
2019-02-07T13:57:43.471Z,18.03
2019-02-07T13:58:43.457Z,18.02
2019-02-07T13:59:45.453Z,18.05
2019-02-07T14:00:43.441Z,18.03
2019-02-07T14:01:43.426Z,17.99
2019-02-07T14:02:43.417Z,17.86
2019-02-07T14:03:43.415Z,17.53
2019-02-07T14:04:43.399Z,17.00
2019-02-07T14:05:43.387Z,15.66
2019-02-07T14:06:43.372Z,14.01
2019-02-07T14:07:43.363Z,12.41
2019-02-07T14:08:43.357Z,10.80
2019-02-07T14:09:43.343Z,9.51
2019-02-07T14:10:43.337Z,8.39
2019-02-07T14:11:43.322Z,7.55
2019-02-07T14:12:43.316Z,7.86
2019-02-07T14:13:43.300Z,8.76
2019-02-07T14:14:43.292Z,9.72
2019-02-07T14:15:43.276Z,10.59
2019-02-07T14:16:43.267Z,11.18
2019-02-07T14:17:43.256Z,11.78
2019-02-07T14:18:43.252Z,12.10
2019-02-07T14:19:43.231Z,12.41
2019-02-07T14:20:43.221Z,12.67
2019-02-07T14:21:43.210Z,12.95
2019-02-07T14:22:43.206Z,13.00
2019-02-07T14:23:43.188Z,13.04
2019-02-07T14:24:43.182Z,13.21
2019-02-07T14:25:43.181Z,13.29
2019-02-07T14:26:43.163Z,13.36
2019-02-07T14:27:43.151Z,13.39
2019-02-07T14:28:43.139Z,13.36
2019-02-07T14:29:43.123Z,13.45
2019-02-07T14:30:43.117Z,13.43
2019-02-07T14:31:43.101Z,13.37
2019-02-07T14:32:43.090Z,13.40
2019-02-07T14:33:43.486Z,13.37
2019-02-07T14:34:43.075Z,13.40
2019-02-07T14:35:43.062Z,13.39
2019-02-07T14:36:45.544Z,13.27
2019-02-07T14:37:43.038Z,13.22
2019-02-07T14:38:43.028Z,13.21
2019-02-07T14:39:43.017Z,13.24
2019-02-07T14:40:43.004Z,13.12
2019-02-07T14:41:42.993Z,13.09
2019-02-07T14:42:42.983Z,13.14
2019-02-07T14:43:42.973Z,13.18
2019-02-07T14:44:42.961Z,13.12
2019-02-07T14:45:42.954Z,13.11
2019-02-07T14:46:42.943Z,12.95
2019-02-07T14:47:42.931Z,12.95
2019-02-07T14:48:45.194Z,12.88
2019-02-07T14:49:42.910Z,12.92
2019-02-07T14:50:42.896Z,12.89
2019-02-07T14:51:42.885Z,12.74
2019-02-07T14:52:42.875Z,12.74
2019-02-07T14:53:42.863Z,12.74
2019-02-07T14:54:42.864Z,12.56
2019-02-07T14:55:42.847Z,12.51
2019-02-07T14:56:42.843Z,12.58
2019-02-07T14:57:42.823Z,12.66
2019-02-07T14:58:42.812Z,12.66
2019-02-07T14:59:42.805Z,12.58
2019-02-07T15:00:42.790Z,12.53
2019-02-07T15:01:42.778Z,12.56
2019-02-07T15:02:42.868Z,12.55
2019-02-07T15:03:42.761Z,12.66
2019-02-07T15:04:42.749Z,12.75
2019-02-07T15:05:42.737Z,12.82
2019-02-07T15:06:42.728Z,12.84
2019-02-07T15:07:42.714Z,12.89
2019-02-07T15:08:42.705Z,12.85
2019-02-07T15:09:42.695Z,12.84
2019-02-07T15:10:42.683Z,12.89
2019-02-07T15:11:42.772Z,12.89
2019-02-07T15:12:42.673Z,12.87
2019-02-07T15:13:42.656Z,12.89
2019-02-07T15:14:42.639Z,12.95
2019-02-07T15:15:42.632Z,12.96
2019-02-07T15:16:42.624Z,12.96
2019-02-07T15:17:42.605Z,12.89
2019-02-07T15:18:42.606Z,12.95
2019-02-07T15:19:42.611Z,12.85
2019-02-07T15:20:42.627Z,12.71
2019-02-07T15:21:42.569Z,12.77
2019-02-07T15:22:42.557Z,12.78
2019-02-07T15:23:42.543Z,12.77
2019-02-07T15:24:42.538Z,12.74
2019-02-07T15:25:42.525Z,12.84
2019-02-07T15:26:42.515Z,12.71
2019-02-07T15:27:42.587Z,12.78
2019-02-07T15:28:42.490Z,12.82
2019-02-07T15:29:42.479Z,12.87
2019-02-07T15:30:42.466Z,12.96
2019-02-07T15:31:42.457Z,12.95
2019-02-07T15:32:42.450Z,12.93
2019-02-07T15:33:42.439Z,12.97
2019-02-07T15:34:42.673Z,12.92